Time;durP1;ratioP1;P1;durP2;ratioP2;P2;SDS_P1;SDS_P2;PMS_P1;PMS_P2;Temp;Humidity;BMP_temperature;BMP_pressure;BME280_temperature;BME280_humidity;BME280_pressure;Samples;Min_cycle;Max_cycle;Signal;HPM_P1;HPM_P2
2021/09/17 00:01:52;;;;;;;;;;;;;;;18.03;94.87;97610.41;1641325;86;20166;-82
2021/09/17 00:04:18;;;;;;;;;;;;;;;18.09;96.14;97604.95;1641265;86;20150;-82
2021/09/17 00:06:45;;;;;;;;;;;;;;;18.13;98.09;97607.84;1641322;86;21704;-77
2021/09/17 00:09:14;;;;;;;;;;;;;;;18.08;96.94;97603.36;1641244;86;20165;-82
2021/09/17 00:11:41;;;;;;;;;;;;;;;18.05;95.88;97602.67;1641341;86;20154;-77
2021/09/17 00:14:08;;;;;;;;;;;;;;;18.06;96.06;97604.84;1641323;86;20146;-81
2021/09/17 00:16:35;;;;;;;;;;;;;;;18.06;96.37;97604.84;1641378;86;20221;-77
2021/09/17 00:19:02;;;;;;;;;;;;;;;18.07;97.50;97601.76;1639692;86;20532;-77
2021/09/17 00:21:28;;;;;;;;;;;;;;;18.03;96.88;97596.70;1636842;87;20216;-77
2021/09/17 00:23:55;;;;;;;;;;;;;;;17.99;97.25;97597.16;1622908;87;20158;-77
2021/09/17 00:26:22;;;;;;;;;;;;;;;17.97;96.31;97593.97;1636966;86;20213;-81
2021/09/17 00:28:50;;;;;;;;;;;;;;;17.95;97.56;97590.77;1636658;86;20240;-82
2021/09/17 00:31:17;;;;;;;;;;;;;;;17.94;97.20;97584.45;1641378;87;21024;-77
2021/09/17 00:33:44;;;;;;;;;;;;;;;17.92;97.24;97585.94;1641104;86;20150;-77
2021/09/17 00:36:11;;;;;;;;;;;;;;;17.94;97.01;97583.66;1636943;87;20495;-81
2021/09/17 00:38:37;;;;;;;;;;;;;;;17.96;96.20;97583.58;1636632;87;20430;-82
2021/09/17 00:41:04;;;;;;;;;;;;;;;17.97;95.89;97583.00;1641588;86;20184;-77
2021/09/17 00:43:31;;;;;;;;;;;;;;;18.02;96.55;97585.52;1641050;86;21007;-82
2021/09/17 00:45:58;;;;;;;;;;;;;;;18.04;97.65;97581.89;1633952;87;20230;-77
2021/09/17 00:48:24;;;;;;;;;;;;;;;18.02;96.85;97575.34;1641055;87;20418;-82
2021/09/17 00:50:51;;;;;;;;;;;;;;;18.00;97.47;97573.52;1641129;86;20212;-78
2021/09/17 00:53:18;;;;;;;;;;;;;;;17.98;97.82;97563.47;1641157;87;20174;-82
2021/09/17 00:55:45;;;;;;;;;;;;;;;18.00;96.62;97563.13;1641108;87;20955;-77
2021/09/17 00:58:12;;;;;;;;;;;;;;;17.99;97.64;97559.59;1641069;87;20161;-82
2021/09/17 01:00:38;;;;;;;;;;;;;;;18.02;96.55;97555.36;1619911;88;20333;-82
2021/09/17 01:03:05;;;;;;;;;;;;;;;18.04;96.33;97555.84;1645825;87;20146;-77
2021/09/17 01:05:33;;;;;;;;;;;;;;;17.97;95.89;97557.77;1643656;87;20181;-78
2021/09/17 01:08:01;;;;;;;;;;;;;;;17.91;96.29;97548.14;1641199;87;21890;-77
2021/09/17 01:10:27;;;;;;;;;;;;;;;17.88;95.85;97544.72;1631640;87;20137;-82
2021/09/17 01:12:54;;;;;;;;;;;;;;;17.92;95.67;97536.61;1643014;87;20449;-82
2021/09/17 01:15:21;;;;;;;;;;;;;;;17.95;97.00;97541.44;1641177;87;20184;-77
2021/09/17 01:17:48;;;;;;;;;;;;;;;17.94;97.46;97537.06;1636805;86;20167;-82
2021/09/17 01:20:17;;;;;;;;;;;;;;;17.94;97.19;97532.95;1641055;85;21015;-82
2021/09/17 01:22:44;;;;;;;;;;;;;;;17.91;97.00;97527.59;1641219;86;20138;-77
2021/09/17 01:25:14;;;;;;;;;;;;;;;17.90;98.32;97521.08;1641125;85;20353;-82
2021/09/17 01:27:43;;;;;;;;;;;;;;;17.95;97.84;97520.88;1641500;86;20505;-77
2021/09/17 01:30:10;;;;;;;;;;;;;;;17.98;97.33;97512.77;1640359;87;20146;-77
2021/09/17 01:32:41;;;;;;;;;;;;;;;17.97;98.77;97513.91;1625082;87;20898;-78
2021/09/17 01:35:06;;;;;;;;;;;;;;;17.96;97.53;97504.66;1641056;85;20142;-82
2021/09/17 01:37:33;;;;;;;;;;;;;;;17.91;96.44;97504.30;1641317;86;20455;-77
2021/09/17 01:40:00;;;;;;;;;;;;;;;17.85;96.34;97501.53;1641117;86;20417;-77
2021/09/17 01:42:27;;;;;;;;;;;;;;;17.80;97.29;97500.39;1641345;85;20154;-82
2021/09/17 01:44:54;;;;;;;;;;;;;;;17.76;98.14;97496.14;1619094;87;21018;-77
2021/09/17 01:47:20;;;;;;;;;;;;;;;17.76;98.50;97493.98;1640769;86;20139;-82
2021/09/17 01:49:47;;;;;;;;;;;;;;;17.75;96.74;97488.27;1641169;86;20134;-82
2021/09/17 01:52:14;;;;;;;;;;;;;;;17.75;96.38;97484.95;1641256;86;20213;-77
2021/09/17 01:54:42;;;;;;;;;;;;;;;17.78;97.63;97487.61;1641204;86;20146;-77
2021/09/17 01:57:08;;;;;;;;;;;;;;;17.82;98.11;97478.13;1641265;85;21725;-82
2021/09/17 01:59:35;;;;;;;;;;;;;;;17.81;98.60;97476.53;1641061;86;20149;-82
2021/09/17 02:02:02;;;;;;;;;;;;;;;17.79;99.00;97473.34;1641374;87;20252;-77
2021/09/17 02:04:29;;;;;;;;;;;;;;;17.80;98.42;97469.45;1641020;86;20448;-77
2021/09/17 02:06:56;;;;;;;;;;;;;;;17.75;99.10;97469.09;1641306;86;20476;-82
2021/09/17 02:09:23;;;;;;;;;;;;;;;17.75;97.67;97461.67;1641222;86;20942;-82
2021/09/17 02:11:50;;;;;;;;;;;;;;;17.80;97.57;97455.75;1641175;86;20212;-77
2021/09/17 02:14:17;;;;;;;;;;;;;;;17.79;99.60;97456.33;1641623;86;20150;-77
2021/09/17 02:16:43;;;;;;;;;;;;;;;17.83;98.14;97446.27;1641496;86;20508;-82
2021/09/17 02:19:10;;;;;;;;;;;;;;;17.86;98.47;97453.00;1641692;86;20142;-77
2021/09/17 02:21:40;;;;;;;;;;;;;;;17.88;98.14;97448.00;1631004;86;21070;-82
2021/09/17 02:24:07;;;;;;;;;;;;;;;17.85;98.25;97440.45;1642079;84;20130;-77
2021/09/17 02:26:34;;;;;;;;;;;;;;;17.89;98.11;97435.90;1635202;86;20198;-81
2021/09/17 02:29:01;;;;;;;;;;;;;;;17.89;96.83;97438.64;1634699;86;20142;-82
2021/09/17 02:31:28;;;;;;;;;;;;;;;17.82;97.31;97432.91;1634957;87;20214;-77
2021/09/17 02:33:54;;;;;;;;;;;;;;;17.79;96.18;97428.92;1634660;86;21569;-81
2021/09/17 02:36:21;;;;;;;;;;;;;;;17.79;95.95;97418.53;1634993;85;20226;-81
2021/09/17 02:38:48;;;;;;;;;;;;;;;17.75;95.77;97419.77;1634744;86;20158;-81
2021/09/17 02:41:15;;;;;;;;;;;;;;;17.71;95.82;97418.30;1634724;86;20201;-82
2021/09/17 02:43:42;;;;;;;;;;;;;;;17.67;96.53;97415.95;1634532;86;20184;-82
2021/09/17 02:46:08;;;;;;;;;;;;;;;17.66;98.07;97406.72;1634690;86;21715;-81
2021/09/17 02:48:35;;;;;;;;;;;;;;;17.68;97.39;97412.65;1634594;86;20386;-77
2021/09/17 02:51:02;;;;;;;;;;;;;;;17.73;96.91;97411.90;1635000;86;20456;-77
2021/09/17 02:53:29;;;;;;;;;;;;;;;17.81;96.72;97408.83;1634551;86;20167;-82
2021/09/17 02:55:57;;;;;;;;;;;;;;;17.78;98.53;97408.15;1634580;85;20193;-77
2021/09/17 02:58:24;;;;;;;;;;;;;;;17.76;98.31;97406.30;1634546;86;21011;-81
2021/09/17 03:00:51;;;;;;;;;;;;;;;17.76;98.45;97404.36;1634326;86;20196;-82
2021/09/17 03:03:18;;;;;;;;;;;;;;;17.78;97.37;97401.87;1622210;87;20418;-82
2021/09/17 03:05:45;;;;;;;;;;;;;;;17.80;97.50;97400.95;1626278;86;20446;-77
2021/09/17 03:08:12;;;;;;;;;;;;;;;17.77;96.01;97398.30;1634593;86;20201;-82
2021/09/17 03:10:39;;;;;;;;;;;;;;;17.71;98.70;97392.27;1634404;88;21015;-77
2021/09/17 03:13:06;;;;;;;;;;;;;;;17.72;96.46;97397.17;1634531;86;20406;-76
2021/09/17 03:15:33;;;;;;;;;;;;;;;17.67;97.25;97387.19;1634597;85;20203;-82
2021/09/17 03:18:00;;;;;;;;;;;;;;;17.67;99.11;97380.92;1635034;87;20836;-82
2021/09/17 03:20:27;;;;;;;;;;;;;;;17.67;98.63;97378.98;1662476;85;20432;-76
2021/09/17 03:22:54;;;;;;;;;;;;;;;17.65;97.74;97381.83;1668019;86;21741;-82
2021/09/17 03:25:21;;;;;;;;;;;;;;;17.59;98.39;97377.14;1647885;86;20146;-76
2021/09/17 03:27:48;;;;;;;;;;;;;;;17.59;98.44;97378.51;1641615;85;20217;-77
2021/09/17 03:30:14;;;;;;;;;;;;;;;17.58;99.84;97383.77;1641480;86;20719;-83
2021/09/17 03:32:41;;;;;;;;;;;;;;;17.56;100.00;97375.09;1641611;86;20465;-76
2021/09/17 03:35:08;;;;;;;;;;;;;;;17.55;99.96;97376.23;1641487;86;20923;-76
2021/09/17 03:37:35;;;;;;;;;;;;;;;17.54;100.00;97377.38;1641580;85;20102;-77
2021/09/17 03:40:02;;;;;;;;;;;;;;;17.55;99.58;97377.61;1641494;85;20213;-82
2021/09/17 03:42:29;;;;;;;;;;;;;;;17.58;98.77;97378.28;1641634;86;20606;-77
2021/09/17 03:44:56;;;;;;;;;;;;;;;17.63;98.34;97375.33;1641377;86;20155;-82
2021/09/17 03:47:23;;;;;;;;;;;;;;;17.64;99.71;97374.19;1641770;87;21939;-83
2021/09/17 03:49:50;;;;;;;;;;;;;;;17.61;99.00;97374.88;1641539;86;20086;-83
2021/09/17 03:52:17;;;;;;;;;;;;;;;17.60;99.05;97376.56;1641645;87;20241;-83
2021/09/17 03:54:43;;;;;;;;;;;;;;;17.60;97.39;97380.10;1641420;86;20139;-76
2021/09/17 03:57:10;;;;;;;;;;;;;;;17.59;97.72;97379.87;1641643;86;20216;-76
2021/09/17 03:59:37;;;;;;;;;;;;;;;17.58;98.90;97373.38;1641493;86;21722;-76
2021/09/17 04:02:04;;;;;;;;;;;;;;;17.47;100.00;97373.02;1641629;86;20503;-82
2021/09/17 04:04:30;;;;;;;;;;;;;;;17.41;100.00;97368.33;1621379;87;20142;-76
2021/09/17 04:06:58;;;;;;;;;;;;;;;17.41;99.28;97371.06;1641496;85;20193;-82
2021/09/17 04:09:25;;;;;;;;;;;;;;;17.43;99.42;97370.17;1641429;86;20153;-82
2021/09/17 04:11:52;;;;;;;;;;;;;;;17.39;99.93;97372.55;1641694;87;20955;-76
2021/09/17 04:14:19;;;;;;;;;;;;;;;17.23;100.00;97377.88;1641337;87;20141;-83
2021/09/17 04:16:46;;;;;;;;;;;;;;;17.17;100.00;97386.86;1641764;87;20208;-76
2021/09/17 04:19:12;;;;;;;;;;;;;;;17.04;100.00;97382.50;1641743;85;20169;-76
2021/09/17 04:21:39;;;;;;;;;;;;;;;16.91;100.00;97385.74;1641388;86;20181;-76
2021/09/17 04:24:06;;;;;;;;;;;;;;;16.78;100.00;97385.47;1641440;85;21043;-82
2021/09/17 04:26:33;;;;;;;;;;;;;;;16.60;100.00;97384.79;1641598;87;20209;-83
2021/09/17 04:29:00;;;;;;;;;;;;;;;16.43;100.00;97389.02;1641496;86;20401;-83
2021/09/17 04:31:27;;;;;;;;;;;;;;;16.32;100.00;97381.79;1641596;87;20220;-82
2021/09/17 04:33:53;;;;;;;;;;;;;;;16.30;100.00;97374.46;1641675;86;20167;-83
2021/09/17 04:36:20;;;;;;;;;;;;;;;16.20;100.00;97377.59;1641584;86;20947;-82
2021/09/17 04:38:47;;;;;;;;;;;;;;;16.19;100.00;97379.30;1641410;85;20142;-77
2021/09/17 04:41:14;;;;;;;;;;;;;;;16.23;100.00;97376.92;1641588;86;20169;-76
2021/09/17 04:43:40;;;;;;;;;;;;;;;16.21;100.00;97381.13;1641937;87;20170;-82
2021/09/17 04:46:07;;;;;;;;;;;;;;;16.19;100.00;97390.23;1641701;86;20213;-76
2021/09/17 04:48:34;;;;;;;;;;;;;;;16.16;100.00;97384.86;1621100;87;20928;-82
2021/09/17 04:51:01;;;;;;;;;;;;;;;15.99;100.00;97391.80;1641512;86;20202;-82
2021/09/17 04:53:30;;;;;;;;;;;;;;;15.79;100.00;97404.25;1641594;85;20170;-76
2021/09/17 04:55:57;;;;;;;;;;;;;;;15.64;100.00;97402.89;1621313;87;20420;-82
2021/09/17 04:58:25;;;;;;;;;;;;;;;15.57;100.00;97424.97;1641936;86;20146;-76
2021/09/17 05:00:52;;;;;;;;;;;;;;;15.29;100.00;97425.90;1641640;86;21159;-80
2021/09/17 05:03:19;;;;;;;;;;;;;;;15.17;100.00;97431.47;1641471;86;20163;-77
2021/09/17 05:05:46;;;;;;;;;;;;;;;15.14;100.00;97440.31;1641332;87;20138;-82
2021/09/17 05:08:13;;;;;;;;;;;;;;;15.02;100.00;97448.33;1641904;86;20174;-77
2021/09/17 05:10:40;;;;;;;;;;;;;;;14.85;100.00;97446.97;1641410;85;20170;-77
2021/09/17 05:13:06;;;;;;;;;;;;;;;14.57;100.00;97462.84;1641310;86;21165;-77
2021/09/17 05:15:33;;;;;;;;;;;;;;;14.48;100.00;97464.75;1641385;85;20167;-82
2021/09/17 05:18:00;;;;;;;;;;;;;;;14.43;100.00;97469.75;1641681;85;20138;-77
2021/09/17 05:20:27;;;;;;;;;;;;;;;14.23;100.00;97478.53;1645671;85;20185;-77
2021/09/17 05:22:54;;;;;;;;;;;;;;;14.19;100.00;97482.45;1656004;85;20150;-77
2021/09/17 05:25:21;;;;;;;;;;;;;;;14.14;100.00;97486.67;1655478;85;21019;-77
2021/09/17 05:27:48;;;;;;;;;;;;;;;14.14;100.00;97494.85;1655637;85;20150;-81
2021/09/17 05:30:15;;;;;;;;;;;;;;;14.11;100.00;97497.66;1655488;85;20143;-77
2021/09/17 05:32:41;;;;;;;;;;;;;;;14.15;100.00;97492.93;1655734;85;20700;-78
2021/09/17 05:35:09;;;;;;;;;;;;;;;14.14;100.00;97494.85;1655550;85;20414;-77
2021/09/17 05:37:36;;;;;;;;;;;;;;;14.18;100.00;97507.27;1644754;85;21027;-81
2021/09/17 05:40:04;;;;;;;;;;;;;;;14.22;100.00;97505.54;1639582;86;20146;-82
2021/09/17 05:42:31;;;;;;;;;;;;;;;14.22;100.00;97515.87;1655112;86;20169;-77
2021/09/17 05:44:58;;;;;;;;;;;;;;;14.23;100.00;97514.76;1655505;85;20134;-77
2021/09/17 05:47:25;;;;;;;;;;;;;;;14.23;100.00;97513.95;1655720;85;20198;-81
2021/09/17 05:49:52;;;;;;;;;;;;;;;14.26;100.00;97514.11;1655512;85;21017;-81
2021/09/17 05:52:19;;;;;;;;;;;;;;;14.23;100.00;97520.20;1631044;86;20210;-81
2021/09/17 05:54:46;;;;;;;;;;;;;;;14.22;100.00;97515.87;1626602;87;20421;-77
2021/09/17 05:57:14;;;;;;;;;;;;;;;14.25;100.00;97526.13;1631299;86;20430;-82
2021/09/17 05:59:40;;;;;;;;;;;;;;;14.25;100.00;97524.77;1660785;85;20433;-77
2021/09/17 06:02:08;;;;;;;;;;;;;;;14.33;100.00;97530.81;1657037;85;21026;-77
2021/09/17 06:04:35;;;;;;;;;;;;;;;14.33;100.00;97534.91;1655592;85;20396;-80
2021/09/17 06:07:03;;;;;;;;;;;;;;;14.31;100.00;97542.59;1630918;86;20456;-77
2021/09/17 06:09:30;;;;;;;;;;;;;;;14.32;100.00;97539.31;1655757;85;20174;-81
2021/09/17 06:11:56;;;;;;;;;;;;;;;14.31;100.00;97545.88;1647954;86;20249;-77
2021/09/17 06:14:23;;;;;;;;;;;;;;;14.30;100.00;97548.37;1655484;85;21787;-81
2021/09/17 06:16:50;;;;;;;;;;;;;;;14.34;100.00;97552.86;1655660;85;20622;-82
2021/09/17 06:19:17;;;;;;;;;;;;;;;14.35;100.00;97550.38;1655761;85;20146;-79
2021/09/17 06:21:44;;;;;;;;;;;;;;;14.35;100.00;97550.38;1645033;86;20275;-77
2021/09/17 06:24:10;;;;;;;;;;;;;;;14.32;100.00;97555.10;1667770;85;20196;-81
2021/09/17 06:26:37;;;;;;;;;;;;;;;14.28;100.00;97555.50;1667900;85;21739;-82
2021/09/17 06:29:05;;;;;;;;;;;;;;;14.15;99.61;97569.22;1667743;85;20138;-77
2021/09/17 06:31:33;;;;;;;;;;;;;;;14.07;99.13;97564.77;1668400;85;20452;-82
2021/09/17 06:34:00;;;;;;;;;;;;;;;13.93;98.43;97570.88;1667856;84;20744;-77
2021/09/17 06:36:27;;;;;;;;;;;;;;;13.87;98.89;97574.84;1667929;85;20571;-82
2021/09/17 06:38:55;;;;;;;;;;;;;;;13.83;98.77;97573.28;1667935;85;21005;-82
2021/09/17 06:41:22;;;;;;;;;;;;;;;13.76;98.74;97581.67;1667912;85;20153;-77
2021/09/17 06:43:49;;;;;;;;;;;;;;;13.62;98.83;97580.37;1668251;85;20231;-81
2021/09/17 06:46:16;;;;;;;;;;;;;;;13.50;98.86;97575.49;1667903;85;20172;-77
2021/09/17 06:48:43;;;;;;;;;;;;;;;13.52;99.45;97580.62;1667960;84;20101;-77
2021/09/17 06:51:10;;;;;;;;;;;;;;;13.51;99.37;97583.90;1667901;85;20916;-81
2021/09/17 06:53:36;;;;;;;;;;;;;;;13.45;99.55;97580.24;1667736;85;20247;-77
2021/09/17 06:56:04;;;;;;;;;;;;;;;13.44;99.54;97578.64;1668054;85;20137;-81
2021/09/17 06:58:33;;;;;;;;;;;;;;;13.47;99.52;97584.81;1668015;85;20134;-82
2021/09/17 07:01:00;;;;;;;;;;;;;;;13.46;100.00;97585.37;1667733;85;20175;-82
2021/09/17 07:03:27;;;;;;;;;;;;;;;13.54;99.68;97586.00;1635565;86;20987;-77
2021/09/17 07:05:54;;;;;;;;;;;;;;;13.61;99.57;97586.93;1646482;87;20143;-82
2021/09/17 07:08:21;;;;;;;;;;;;;;;13.60;99.12;97583.97;1647357;86;20396;-77
2021/09/17 07:10:48;;;;;;;;;;;;;;;13.55;99.19;97588.95;1631389;87;20169;-81
2021/09/17 07:13:15;;;;;;;;;;;;;;;13.54;98.53;97590.64;1646835;86;20154;-77
2021/09/17 07:15:41;;;;;;;;;;;;;;;13.51;98.50;97597.51;1664350;86;21713;-81
2021/09/17 07:18:08;;;;;;;;;;;;;;;13.46;98.62;97597.62;1667951;85;20142;-81
2021/09/17 07:20:36;;;;;;;;;;;;;;;13.49;98.69;97599.71;1639412;86;20826;-81
2021/09/17 07:23:03;;;;;;;;;;;;;;;13.48;98.58;97602.75;1634501;88;20204;-81
2021/09/17 07:25:31;;;;;;;;;;;;;;;13.44;98.48;97599.85;1645542;85;20150;-77
2021/09/17 07:27:58;;;;;;;;;;;;;;;13.45;98.84;97606.09;1641367;86;21112;-77
2021/09/17 07:30:25;;;;;;;;;;;;;;;13.45;98.99;97601.45;1624385;86;20434;-81
2021/09/17 07:32:52;;;;;;;;;;;;;;;13.44;98.80;97605.85;1641813;86;20205;-77
2021/09/17 07:35:19;;;;;;;;;;;;;;;13.43;98.96;97607.77;1641203;85;20131;-77
2021/09/17 07:37:45;;;;;;;;;;;;;;;13.48;98.74;97612.27;1641381;86;20185;-77
2021/09/17 07:40:15;;;;;;;;;;;;;;;13.48;98.42;97612.27;1626378;87;21572;-78
2021/09/17 07:42:44;;;;;;;;;;;;;;;13.44;98.41;97614.82;1641065;85;20429;-81
2021/09/17 07:45:11;;;;;;;;;;;;;;;13.41;98.55;97615.97;1641167;86;20150;-81
2021/09/17 07:47:39;;;;;;;;;;;;;;;13.46;99.06;97622.67;1641096;85;20236;-77
2021/09/17 07:50:07;;;;;;;;;;;;;;;13.55;98.39;97620.27;1641177;86;20149;-81
2021/09/17 07:52:34;;;;;;;;;;;;;;;13.60;98.33;97628.88;1618477;87;21032;-77
2021/09/17 07:55:01;;;;;;;;;;;;;;;13.57;98.19;97634.92;1643447;86;20141;-81
2021/09/17 07:57:27;;;;;;;;;;;;;;;13.61;98.12;97631.84;1643693;86;20193;-81
2021/09/17 07:59:54;;;;;;;;;;;;;;;13.65;98.40;97637.47;1643874;85;20655;-78
2021/09/17 08:02:21;;;;;;;;;;;;;;;13.59;98.62;97636.80;1643712;86;20221;-81
2021/09/17 08:04:48;;;;;;;;;;;;;;;13.64;98.26;97636.66;1615942;87;20488;-82
2021/09/17 08:07:15;;;;;;;;;;;;;;;13.63;98.68;97630.17;1642351;86;20476;-82
2021/09/17 08:09:42;;;;;;;;;;;;;;;13.69;98.35;97637.11;1629309;86;20213;-77
2021/09/17 08:12:09;;;;;;;;;;;;;;;13.77;98.40;97637.73;1634424;87;20211;-77
2021/09/17 08:14:36;;;;;;;;;;;;;;;13.75;98.40;97639.94;1653536;86;20146;-77
2021/09/17 08:17:03;;;;;;;;;;;;;;;13.80;98.33;97642.00;1641391;86;21103;-77
2021/09/17 08:19:29;;;;;;;;;;;;;;;13.84;98.04;97644.89;1640859;86;20130;-82
2021/09/17 08:21:56;;;;;;;;;;;;;;;13.90;98.07;97645.02;1641278;86;20150;-77
2021/09/17 08:24:24;;;;;;;;;;;;;;;13.79;97.50;97643.67;1641286;86;20819;-82
2021/09/17 08:26:52;;;;;;;;;;;;;;;13.92;97.66;97646.06;1641591;86;20172;-77
2021/09/17 08:29:19;;;;;;;;;;;;;;;13.77;96.62;97652.71;1641405;86;21007;-77
2021/09/17 08:31:46;;;;;;;;;;;;;;;13.79;96.41;97654.56;1641525;86;20181;-77
2021/09/17 08:34:13;;;;;;;;;;;;;;;13.70;96.45;97649.61;1641272;85;20442;-82
2021/09/17 08:36:39;;;;;;;;;;;;;;;13.75;96.58;97651.63;1641634;86;20220;-81
2021/09/17 08:39:07;;;;;;;;;;;;;;;13.84;96.50;97655.78;1641435;86;20170;-77
2021/09/17 08:41:34;;;;;;;;;;;;;;;13.79;95.64;97655.92;1641530;86;21017;-77
2021/09/17 08:44:01;;;;;;;;;;;;;;;13.79;95.85;97652.64;1641407;86;20142;-77
2021/09/17 08:46:27;;;;;;;;;;;;;;;13.79;95.69;97654.00;1641311;85;20138;-77
2021/09/17 08:48:54;;;;;;;;;;;;;;;13.79;96.05;97650.48;1641495;86;20703;-81
2021/09/17 08:51:21;;;;;;;;;;;;;;;13.79;95.25;97654.56;1641385;86;20413;-82
2021/09/17 08:53:48;;;;;;;;;;;;;;;13.73;94.16;97649.78;1641772;85;20905;-77
2021/09/17 08:56:16;;;;;;;;;;;;;;;13.69;94.30;97649.36;1641262;86;20159;-77
2021/09/17 08:58:43;;;;;;;;;;;;;;;13.62;94.78;97646.27;1641547;86;20183;-82
2021/09/17 09:01:27;;;;;;;;;;;;;;;13.51;95.26;97648.42;1615934;87;20126;-82
2021/09/17 09:03:57;;;;;;;;;;;;;;;13.45;95.99;97646.36;1643366;86;20487;-81
2021/09/17 09:06:24;;;;;;;;;;;;;;;13.49;96.85;97652.78;1641290;85;21049;-81
2021/09/17 09:08:51;;;;;;;;;;;;;;;13.58;96.40;97652.86;1641522;85;20166;-77
2021/09/17 09:11:23;;;;;;;;;;;;;;;13.61;96.31;97652.83;1641275;85;20170;-82
2021/09/17 09:13:58;;;;;;;;;;;;;;;13.75;96.31;97654.36;1641084;87;20284;-81
2021/09/17 09:16:25;;;;;;;;;;;;;;;13.79;95.89;97652.64;1641262;86;20228;-78
2021/09/17 09:18:52;;;;;;;;;;;;;;;13.85;96.11;97660.70;1641520;86;21005;-77
2021/09/17 09:21:25;;;;;;;;;;;;;;;13.99;95.79;97658.70;1640937;86;20142;-82
2021/09/17 09:24:14;;;;;;;;;;;;;;;14.14;95.57;97658.33;1641350;85;20150;-82
2021/09/17 09:26:41;;;;;;;;;;;;;;;14.28;95.42;97659.05;1641278;87;20449;-77
2021/09/17 09:29:29;;;;;;;;;;;;;;;14.32;94.94;97660.59;1641316;86;20434;-77
2021/09/17 09:31:56;;;;;;;;;;;;;;;14.37;94.33;97650.93;1641688;87;21089;-81
2021/09/17 09:34:43;;;;;;;;;;;;;;;14.30;93.44;97648.64;1641284;86;20098;-77
2021/09/17 09:37:11;;;;;;;;;;;;;;;14.23;93.37;97651.56;1641746;87;20154;-81
2021/09/17 09:40:04;;;;;;;;;;;;;;;14.16;92.87;97647.11;1641352;86;20154;-82
2021/09/17 09:42:39;;;;;;;;;;;;;;;14.24;93.41;97652.61;1641976;87;20469;-82
2021/09/17 09:45:16;;;;;;;;;;;;;;;14.24;93.57;97651.24;1641302;86;20980;-82
2021/09/17 09:47:49;;;;;;;;;;;;;;;14.25;93.66;97649.32;1641933;87;20158;-81
2021/09/17 09:50:24;;;;;;;;;;;;;;;14.35;93.92;97650.41;1640964;85;20155;-77
2021/09/17 09:52:51;;;;;;;;;;;;;;;14.40;93.53;97647.00;1637003;87;20153;-77
2021/09/17 09:55:18;;;;;;;;;;;;;;;14.44;92.99;97647.73;1638469;86;20129;-77
2021/09/17 09:57:45;;;;;;;;;;;;;;;14.45;92.97;97644.75;1641818;85;21297;-82
2021/09/17 10:00:13;;;;;;;;;;;;;;;14.50;92.50;97643.23;1634489;86;20193;-77
2021/09/17 10:02:41;;;;;;;;;;;;;;;14.53;91.83;97648.08;1643439;86;20158;-77
2021/09/17 10:05:10;;;;;;;;;;;;;;;14.62;92.68;97653.56;1643365;86;20162;-77
2021/09/17 10:07:36;;;;;;;;;;;;;;;14.61;92.47;97651.93;1644895;85;20146;-77
2021/09/17 10:10:06;;;;;;;;;;;;;;;14.58;91.75;97648.48;1641239;86;21206;-82
2021/09/17 10:12:33;;;;;;;;;;;;;;;14.66;92.58;97644.42;1641249;85;20121;-82
2021/09/17 10:15:00;;;;;;;;;;;;;;;14.80;93.04;97641.59;1641310;86;20167;-77
2021/09/17 10:17:29;;;;;;;;;;;;;;;14.91;93.24;97642.91;1641229;86;20204;-78
2021/09/17 10:19:57;;;;;;;;;;;;;;;15.05;93.12;97639.27;1635422;86;20184;-81
2021/09/17 10:22:34;;;;;;;;;;;;;;;15.16;92.25;97637.83;1641926;86;21046;-82
2021/09/17 10:25:24;;;;;;;;;;;;;;;15.15;91.14;97638.39;1643487;86;20145;-78
2021/09/17 10:28:08;;;;;;;;;;;;;;;15.22;91.85;97637.36;1633939;87;20170;-78
2021/09/17 10:30:38;;;;;;;;;;;;;;;15.31;92.01;97636.58;1641440;86;20200;-82
2021/09/17 10:33:25;;;;;;;;;;;;;;;15.33;91.39;97635.12;1641999;86;20154;-77
2021/09/17 10:35:52;;;;;;;;;;;;;;;15.44;91.56;97635.61;1641450;87;21045;-82
2021/09/17 10:38:27;;;;;;;;;;;;;;;15.51;91.06;97631.27;1641666;86;20213;-82
2021/09/17 10:41:02;;;;;;;;;;;;;;;15.56;90.85;97628.96;1641359;86;20146;-78
2021/09/17 10:43:33;;;;;;;;;;;;;;;15.64;88.46;97628.19;1641565;87;20707;-82
2021/09/17 10:46:07;;;;;;;;;;;;;;;15.69;90.06;97628.01;1621138;87;20185;-81
2021/09/17 10:48:44;;;;;;;;;;;;;;;15.81;90.78;97617.81;1641587;86;20913;-82
2021/09/17 10:51:29;;;;;;;;;;;;;;;15.82;86.04;97624.88;1641428;86;20138;-78
2021/09/17 10:53:57;;;;;;;;;;;;;;;15.87;88.96;97615.14;1621258;87;20183;-78
2021/09/17 10:56:24;;;;;;;;;;;;;;;15.94;89.23;97614.08;1641440;85;20146;-82
2021/09/17 10:59:11;;;;;;;;;;;;;;;16.03;89.84;97615.44;1621149;87;20158;-78
2021/09/17 11:01:53;;;;;;;;;;;;;;;16.02;88.64;97617.93;1641327;86;20964;-79
2021/09/17 11:04:31;;;;;;;;;;;;;;;16.04;88.96;97625.23;1641242;87;20464;-81
2021/09/17 11:07:18;;;;;;;;;;;;;;;16.10;88.95;97617.67;1641111;85;20138;-82
2021/09/17 11:09:49;;;;;;;;;;;;;;;16.11;87.56;97616.55;1641444;85;20446;-78
2021/09/17 11:12:20;;;;;;;;;;;;;;;16.32;88.64;97612.80;1641625;85;20159;-82
2021/09/17 11:15:08;;;;;;;;;;;;;;;16.31;85.81;97615.84;1641661;86;21059;-81
2021/09/17 11:17:40;;;;;;;;;;;;;;;16.29;85.24;97622.20;1641741;85;20159;-82
2021/09/17 11:20:10;;;;;;;;;;;;;;;16.17;84.31;97616.63;1621388;87;20167;-78
2021/09/17 11:22:52;;;;;;;;;;;;;;;16.12;85.96;97613.48;1638912;86;20438;-78
2021/09/17 11:25:23;;;;;;;;;;;;;;;15.91;85.43;97614.74;1617167;87;20146;-78
2021/09/17 11:27:51;;;;;;;;;;;;;;;15.80;85.99;97616.19;1633474;86;21083;-78
2021/09/17 11:30:21;;;;;;;;;;;;;;;15.70;85.59;97613.22;1641355;87;20151;-82
2021/09/17 11:32:48;;;;;;;;;;;;;;;15.80;87.15;97610.72;1626172;87;20147;-82
2021/09/17 11:35:14;;;;;;;;;;;;;;;15.90;87.39;97613.70;1636734;86;20453;-82
2021/09/17 11:37:56;;;;;;;;;;;;;;;15.91;87.08;97609.84;1639351;87;20200;-81
2021/09/17 11:40:23;;;;;;;;;;;;;;;15.85;86.78;97614.66;1629385;87;20918;-82
2021/09/17 11:42:50;;;;;;;;;;;;;;;15.90;86.65;97617.23;1619209;87;20489;-77
2021/09/17 11:45:18;;;;;;;;;;;;;;;16.01;87.60;97614.40;1641217;86;20170;-82
2021/09/17 11:47:51;;;;;;;;;;;;;;;16.13;87.82;97612.35;1618519;87;20184;-78
2021/09/17 11:50:18;;;;;;;;;;;;;;;16.24;87.58;97614.20;1644899;86;20232;-82
2021/09/17 11:52:46;;;;;;;;;;;;;;;16.30;86.59;97608.20;1620186;87;21039;-78
2021/09/17 11:55:15;;;;;;;;;;;;;;;16.27;86.83;97615.70;1645926;87;20155;-82
2021/09/17 11:57:44;;;;;;;;;;;;;;;16.17;86.45;97616.05;1646840;86;20190;-82
2021/09/17 12:00:13;;;;;;;;;;;;;;;15.97;86.77;97616.16;1637631;87;20142;-78
2021/09/17 12:02:41;;;;;;;;;;;;;;;15.99;87.00;97615.86;1637380;86;20437;-82
2021/09/17 12:05:25;;;;;;;;;;;;;;;15.88;87.11;97614.00;1637117;86;21660;-82
2021/09/17 12:07:52;;;;;;;;;;;;;;;15.96;87.08;97620.02;1636975;87;20145;-80
2021/09/17 12:10:28;;;;;;;;;;;;;;;15.96;86.97;97612.39;1636909;86;20139;-82
2021/09/17 12:13:03;;;;;;;;;;;;;;;16.04;86.50;97611.57;1635596;86;20167;-83
2021/09/17 12:15:32;;;;;;;;;;;;;;;16.00;87.17;97604.59;1641443;86;20153;-78
2021/09/17 12:18:02;;;;;;;;;;;;;;;16.19;87.76;97608.33;1618914;87;21034;-83
2021/09/17 12:20:48;;;;;;;;;;;;;;;16.29;86.68;97609.34;1640389;86;20146;-83
2021/09/17 12:23:22;;;;;;;;;;;;;;;16.29;86.37;97607.97;1650895;85;20175;-82
2021/09/17 12:25:49;;;;;;;;;;;;;;;16.31;85.83;97612.53;1655532;86;20171;-78
2021/09/17 12:28:21;;;;;;;;;;;;;;;16.25;86.14;97611.70;1655808;85;20197;-82
2021/09/17 12:30:49;;;;;;;;;;;;;;;16.20;86.81;97610.49;1655511;85;20621;-80
2021/09/17 12:33:21;;;;;;;;;;;;;;;16.17;86.22;97617.42;1655777;85;20444;-82
2021/09/17 12:35:51;;;;;;;;;;;;;;;16.05;86.21;97615.91;1655554;86;20171;-78
2021/09/17 12:38:21;;;;;;;;;;;;;;;16.00;86.80;97618.83;1654081;85;20449;-78
2021/09/17 12:40:50;;;;;;;;;;;;;;;16.07;87.27;97617.77;1655609;85;20134;-78
2021/09/17 12:43:30;;;;;;;;;;;;;;;16.12;86.98;97614.84;1655776;85;20888;-81
2021/09/17 12:46:00;;;;;;;;;;;;;;;16.15;86.84;97618.85;1655677;85;20166;-78
2021/09/17 12:48:34;;;;;;;;;;;;;;;16.08;87.06;97618.81;1655659;85;20139;-82
2021/09/17 12:51:02;;;;;;;;;;;;;;;16.05;86.83;97618.64;1610515;86;20241;-78
2021/09/17 12:53:36;;;;;;;;;;;;;;;16.05;86.76;97618.64;1655680;85;20202;-78